createdAt,value
2018-05-01T00:00:20.146Z,5.23
2018-05-01T00:02:48.323Z,4.50
2018-05-01T00:05:16.768Z,4.33
2018-05-01T00:07:44.907Z,6.47
2018-05-01T00:10:13.842Z,5.60
2018-05-01T00:12:43.075Z,5.50
2018-05-01T00:15:11.602Z,8.17
2018-05-01T00:17:40.191Z,6.93
2018-05-01T00:20:09.371Z,8.63
2018-05-01T00:22:38.017Z,6.67
2018-05-01T00:25:06.539Z,6.00
2018-05-01T00:27:35.491Z,5.77
2018-05-01T00:30:04.947Z,5.50
2018-05-01T00:32:33.473Z,7.73
2018-05-01T00:35:02.016Z,3.20
2018-05-01T00:37:30.139Z,3.83
2018-05-01T00:39:58.358Z,2.53
2018-05-01T00:42:27.875Z,3.67
2018-05-01T00:44:56.296Z,2.40
2018-05-01T00:47:25.149Z,3.20
2018-05-01T00:49:53.675Z,2.87
2018-05-01T00:52:34.720Z,2.80
2018-05-01T00:55:03.780Z,5.00
2018-05-01T00:57:31.950Z,3.30
2018-05-01T01:00:01.149Z,4.67
2018-05-01T01:02:29.303Z,3.80
2018-05-01T01:04:57.885Z,3.13
2018-05-01T01:07:26.515Z,4.97
2018-05-01T01:09:55.145Z,6.87
2018-05-01T01:12:23.569Z,6.10
2018-05-01T01:14:52.196Z,5.60
2018-05-01T01:17:20.327Z,7.83
2018-05-01T01:19:49.278Z,4.47
2018-05-01T01:22:18.210Z,5.80
2018-05-01T01:24:47.127Z,3.43
2018-05-01T01:27:16.171Z,3.37
2018-05-01T01:29:44.362Z,2.73
2018-05-01T01:32:15.936Z,5.30
2018-05-01T01:34:44.151Z,5.47
2018-05-01T01:37:11.942Z,5.60
2018-05-01T01:39:40.063Z,5.37
2018-05-01T01:42:07.963Z,3.73
2018-05-01T01:44:36.072Z,5.20
2018-05-01T01:47:04.184Z,3.50
2018-05-01T01:49:32.077Z,8.13
2018-05-01T01:52:00.185Z,6.10
2018-05-01T01:54:28.189Z,9.60
2018-05-01T01:56:56.088Z,8.03
2018-05-01T01:59:24.161Z,8.27
2018-05-01T02:01:52.095Z,6.47
2018-05-01T02:04:20.724Z,6.03
2018-05-01T02:06:49.034Z,4.37
2018-05-01T02:09:17.044Z,6.50
2018-05-01T02:11:45.567Z,3.57
2018-05-01T02:14:13.850Z,4.70
2018-05-01T02:16:41.994Z,3.80
2018-05-01T02:19:10.207Z,3.70
2018-05-01T02:21:38.823Z,3.47
2018-05-01T02:24:06.945Z,2.70
2018-05-01T02:26:34.844Z,2.33
2018-05-01T02:29:03.459Z,2.77
2018-05-01T02:31:31.879Z,1.87
2018-05-01T02:34:00.734Z,1.70
2018-05-01T02:36:29.456Z,2.20
2018-05-01T02:38:58.479Z,5.20
2018-05-01T02:41:26.938Z,3.27
2018-05-01T02:43:55.560Z,2.43
2018-05-01T02:46:23.677Z,2.97
2018-05-01T02:48:51.575Z,2.10
2018-05-01T02:51:19.642Z,3.40
2018-05-01T02:53:48.299Z,2.80
2018-05-01T02:56:17.763Z,3.40
2018-05-01T02:58:46.678Z,3.63
2018-05-01T03:01:14.829Z,3.23
2018-05-01T03:03:42.903Z,2.33
2018-05-01T03:06:11.045Z,2.70
2018-05-01T03:08:39.153Z,2.67
2018-05-01T03:11:07.456Z,2.40
2018-05-01T03:13:35.891Z,3.83
2018-05-01T03:16:03.964Z,4.80
2018-05-01T03:18:32.106Z,3.60
2018-05-01T03:21:00.213Z,3.23
2018-05-01T03:23:28.620Z,3.37
2018-05-01T03:25:56.638Z,4.87
2018-05-01T03:28:24.642Z,3.77
2018-05-01T03:30:52.606Z,4.33
2018-05-01T03:33:20.857Z,4.63
2018-05-01T03:35:49.475Z,3.50
2018-05-01T03:38:17.700Z,6.13
2018-05-01T03:40:46.735Z,3.53
2018-05-01T03:43:14.855Z,4.33
2018-05-01T03:45:42.964Z,4.77
2018-05-01T03:48:11.373Z,4.50
2018-05-01T03:50:39.998Z,3.60
2018-05-01T03:53:08.525Z,4.03
2018-05-01T03:55:36.544Z,3.80
2018-05-01T03:58:04.510Z,5.70
2018-05-01T04:00:32.655Z,5.87
2018-05-01T04:03:00.761Z,6.60
2018-05-01T04:05:28.727Z,5.80
2018-05-01T04:07:56.873Z,5.67
2018-05-01T04:10:24.981Z,7.30
2018-05-01T04:12:53.703Z,7.07
2018-05-01T04:15:21.824Z,5.53
2018-05-01T04:17:50.543Z,6.97
2018-05-01T04:20:18.666Z,9.37
2018-05-01T04:22:46.662Z,5.47
2018-05-01T04:25:16.181Z,5.07
2018-05-01T04:27:44.244Z,8.57
2018-05-01T04:30:12.860Z,6.53
2018-05-01T04:32:40.871Z,8.27
2018-05-01T04:35:09.713Z,8.23
2018-05-01T04:37:37.787Z,10.17
2018-05-01T04:40:05.930Z,7.40
2018-05-01T04:42:34.149Z,7.77
2018-05-01T04:45:02.759Z,6.87
2018-05-01T04:47:31.683Z,10.07
2018-05-01T04:50:01.590Z,7.83
2018-05-01T04:52:30.215Z,9.33
2018-05-01T04:54:58.755Z,10.57
2018-05-01T04:57:28.391Z,14.73
2018-05-01T04:59:56.538Z,11.83
2018-05-01T05:02:24.646Z,8.23
2018-05-01T05:04:52.715Z,12.63
2018-05-01T05:07:20.653Z,11.53
2018-05-01T05:09:48.761Z,13.47
2018-05-01T05:12:17.379Z,10.30
2018-05-01T05:14:46.007Z,9.67
2018-05-01T05:17:14.128Z,12.00
2018-05-01T05:19:42.431Z,17.90
2018-05-01T05:22:10.415Z,12.60
2018-05-01T05:24:38.452Z,10.17
2018-05-01T05:27:06.754Z,11.27
2018-05-01T05:29:35.387Z,14.93
2018-05-01T05:32:04.124Z,12.33
2018-05-01T05:34:32.538Z,10.50
2018-05-01T05:37:00.526Z,10.93
2018-05-01T05:39:29.234Z,8.40
2018-05-01T05:41:57.609Z,16.50
2018-05-01T05:44:25.674Z,10.47
2018-05-01T05:46:54.660Z,9.77
2018-05-01T05:49:22.524Z,12.77
2018-05-01T05:51:50.634Z,11.67
2018-05-01T05:54:18.673Z,12.90
2018-05-01T05:56:47.291Z,16.37
2018-05-01T05:59:15.266Z,9.63
2018-05-01T06:01:43.584Z,13.27
2018-05-01T06:04:11.587Z,12.73
2018-05-01T06:06:39.593Z,12.37
2018-05-01T06:09:07.703Z,10.50
2018-05-01T06:11:36.536Z,12.30
2018-05-01T06:14:04.473Z,14.80
2018-05-01T06:16:32.437Z,12.93
2018-05-01T06:19:00.551Z,39.97
2018-05-01T06:21:28.546Z,9.97
2018-05-01T06:23:57.204Z,14.17
2018-05-01T06:26:25.117Z,9.57
2018-05-01T06:28:54.461Z,9.93
2018-05-01T06:31:22.500Z,15.60
2018-05-01T06:33:50.693Z,14.50
2018-05-01T06:36:18.801Z,10.23
2018-05-01T06:38:46.766Z,10.47
2018-05-01T06:41:14.912Z,15.97
2018-05-01T06:43:42.979Z,14.00
2018-05-01T06:46:10.919Z,13.13
2018-05-01T06:48:39.136Z,12.70
2018-05-01T06:51:06.805Z,9.67
2018-05-01T06:53:36.182Z,8.90
2018-05-01T06:56:04.798Z,10.83
2018-05-01T06:58:33.429Z,8.70
2018-05-01T07:01:01.552Z,11.47
2018-05-01T07:03:29.658Z,10.33
2018-05-01T07:05:57.766Z,12.40
2018-05-01T07:08:26.906Z,10.83
2018-05-01T07:10:54.922Z,9.10
2018-05-01T07:13:22.990Z,11.60
2018-05-01T07:15:51.187Z,8.90
2018-05-01T07:18:19.036Z,11.17
2018-05-01T07:20:47.110Z,15.43
2018-05-01T07:23:15.210Z,7.57
2018-05-01T07:25:43.318Z,12.10
2018-05-01T07:28:11.468Z,14.50
2018-05-01T07:30:39.575Z,8.90
2018-05-01T07:33:07.547Z,11.53
2018-05-01T07:35:35.724Z,11.13
2018-05-01T07:38:03.584Z,11.63
2018-05-01T07:40:32.319Z,9.10
2018-05-01T07:43:00.391Z,9.07
2018-05-01T07:45:28.836Z,11.20
2018-05-01T07:47:57.027Z,10.63
2018-05-01T07:50:25.497Z,11.60
2018-05-01T07:52:54.179Z,10.03
2018-05-01T07:55:22.835Z,12.27
2018-05-01T07:57:51.883Z,8.30
2018-05-01T08:00:20.051Z,9.93
2018-05-01T08:02:48.423Z,11.37
2018-05-01T08:05:16.845Z,7.10
2018-05-01T08:07:45.484Z,11.70
2018-05-01T08:10:13.477Z,8.33
2018-05-01T08:12:41.590Z,9.47
2018-05-01T08:15:09.894Z,7.53
2018-05-01T08:17:37.908Z,6.57
2018-05-01T08:20:06.940Z,8.70
2018-05-01T08:22:35.026Z,10.00
2018-05-01T08:25:02.951Z,7.90
2018-05-01T08:27:31.382Z,10.43
2018-05-01T08:30:00.414Z,9.67
2018-05-01T08:32:29.167Z,6.20
2018-05-01T08:34:57.065Z,9.23
2018-05-01T08:37:25.171Z,9.97
2018-05-01T08:39:53.174Z,7.13
2018-05-01T08:42:21.284Z,7.53
2018-05-01T08:44:49.912Z,8.53
2018-05-01T08:47:18.543Z,8.43
2018-05-01T08:49:46.571Z,10.60
2018-05-01T08:52:15.593Z,5.40
2018-05-01T08:54:43.667Z,8.43
2018-05-01T08:57:11.776Z,8.00
2018-05-01T08:59:39.813Z,6.43
2018-05-01T09:02:07.778Z,6.70
2018-05-01T09:04:36.656Z,6.33
2018-05-01T09:07:04.870Z,8.10
2018-05-01T09:09:33.035Z,9.77
2018-05-01T09:12:01.501Z,7.17
2018-05-01T09:14:29.907Z,9.03
2018-05-01T09:16:57.889Z,5.33
2018-05-01T09:19:25.929Z,8.10
2018-05-01T09:21:56.021Z,9.93
2018-05-01T09:24:24.431Z,9.40
2018-05-01T09:26:52.446Z,7.60
2018-05-01T09:29:20.760Z,8.63
2018-05-01T09:31:48.767Z,10.00
2018-05-01T09:34:16.730Z,9.40
2018-05-01T09:36:45.179Z,10.60
2018-05-01T09:39:13.598Z,10.13
2018-05-01T09:41:41.719Z,7.77
2018-05-01T09:44:10.637Z,7.77
2018-05-01T09:46:40.847Z,9.37
2018-05-01T09:49:09.371Z,6.50
2018-05-01T09:51:38.527Z,11.67
2018-05-01T09:54:06.959Z,7.87
2018-05-01T09:56:35.410Z,9.07
2018-05-01T09:59:05.068Z,6.97
2018-05-01T10:01:33.267Z,9.70
2018-05-01T10:04:01.416Z,11.00
2018-05-01T10:06:30.109Z,8.70
2018-05-01T10:08:58.936Z,12.97
2018-05-01T10:11:27.579Z,10.57
2018-05-01T10:13:55.732Z,11.33
2018-05-01T10:16:23.915Z,6.77
2018-05-01T10:18:52.887Z,6.73
2018-05-01T10:21:23.039Z,5.77
2018-05-01T10:23:51.983Z,5.30
2018-05-01T10:26:20.392Z,5.80
2018-05-01T10:28:48.930Z,10.93
2018-05-01T10:31:18.258Z,6.93
2018-05-01T10:33:47.756Z,6.70
2018-05-01T10:36:16.387Z,7.80
2018-05-01T10:38:45.882Z,10.73
2018-05-01T10:41:14.377Z,10.63
2018-05-01T10:43:43.290Z,8.70
2018-05-01T10:46:11.707Z,6.97
2018-05-01T10:48:40.268Z,7.03
2018-05-01T10:51:08.660Z,9.63
2018-05-01T10:53:36.831Z,8.00
2018-05-01T10:56:05.056Z,6.03
2018-05-01T10:58:33.230Z,7.30
2018-05-01T11:01:01.714Z,10.33
2018-05-01T11:03:30.377Z,8.73
2018-05-01T11:05:58.759Z,7.23
2018-05-01T11:08:27.627Z,6.13
2018-05-01T11:10:57.103Z,13.70
2018-05-01T11:13:25.523Z,6.43
2018-05-01T11:15:54.886Z,6.17
2018-05-01T11:18:24.551Z,5.57
2018-05-01T11:20:52.727Z,9.60
2018-05-01T11:23:21.822Z,6.83
2018-05-01T11:25:50.994Z,7.83
2018-05-01T11:28:19.220Z,5.93
2018-05-01T11:30:48.219Z,6.93
2018-05-01T11:33:18.314Z,6.70
2018-05-01T11:35:46.718Z,6.93
2018-05-01T11:38:15.584Z,7.63
2018-05-01T11:40:44.737Z,6.30
2018-05-01T11:43:13.246Z,8.30
2018-05-01T11:45:41.788Z,6.90
2018-05-01T11:48:10.767Z,9.70
2018-05-01T11:50:39.322Z,8.63
2018-05-01T11:53:07.746Z,6.83
2018-05-01T11:55:36.415Z,9.43
2018-05-01T11:58:05.774Z,6.03
2018-05-01T12:00:34.404Z,5.27
2018-05-01T12:03:03.034Z,4.63
2018-05-01T12:05:31.180Z,5.00
2018-05-01T12:07:59.773Z,6.53
2018-05-01T12:10:28.692Z,5.53
2018-05-01T12:12:57.346Z,5.20
2018-05-01T12:15:25.943Z,5.93
2018-05-01T12:17:54.610Z,4.20
2018-05-01T12:20:22.774Z,5.80
2018-05-01T12:22:51.642Z,4.70
2018-05-01T12:25:22.481Z,5.73
2018-05-01T12:27:51.076Z,5.93
2018-05-01T12:30:19.255Z,4.97
2018-05-01T12:32:47.849Z,5.70
2018-05-01T12:35:17.110Z,6.63
2018-05-01T12:37:45.254Z,5.80
2018-05-01T12:40:13.679Z,5.93
2018-05-01T12:42:42.786Z,6.33
2018-05-01T12:45:12.634Z,7.93
2018-05-01T12:47:41.713Z,6.17
2018-05-01T12:50:09.887Z,4.57
2018-05-01T12:52:38.116Z,4.23
2018-05-01T12:55:06.981Z,5.83
2018-05-01T12:57:35.128Z,9.67
2018-05-01T13:00:03.995Z,7.17
2018-05-01T13:02:33.067Z,12.73
2018-05-01T13:05:01.564Z,5.83
2018-05-01T13:07:30.133Z,9.57
2018-05-01T13:09:58.275Z,5.00
2018-05-01T13:12:26.940Z,5.80
2018-05-01T13:14:55.902Z,6.07
2018-05-01T13:17:24.619Z,6.67
2018-05-01T13:19:52.923Z,8.10
2018-05-01T13:22:23.286Z,5.73
2018-05-01T13:24:52.803Z,5.67
2018-05-01T13:27:21.265Z,6.70
2018-05-01T13:29:50.835Z,8.40
2018-05-01T13:32:18.966Z,8.50
2018-05-01T13:34:47.914Z,4.50
2018-05-01T13:37:17.468Z,4.63
2018-05-01T13:39:45.960Z,3.70
2018-05-01T13:42:14.881Z,3.27
2018-05-01T13:44:44.074Z,5.13
2018-05-01T13:47:12.294Z,5.10
2018-05-01T13:49:41.860Z,9.83
2018-05-01T13:52:10.277Z,4.57
2018-05-01T13:54:39.014Z,5.00
2018-05-01T13:57:07.529Z,3.50
2018-05-01T13:59:35.963Z,3.93
2018-05-01T14:02:05.619Z,4.43
2018-05-01T14:04:34.646Z,4.30
2018-05-01T14:07:02.964Z,7.00
2018-05-01T14:09:31.955Z,5.77
2018-05-01T14:12:00.430Z,6.40
2018-05-01T14:14:28.954Z,4.23
2018-05-01T14:16:57.126Z,8.70
2018-05-01T14:19:26.083Z,4.57
2018-05-01T14:21:54.535Z,6.93
2018-05-01T14:24:23.238Z,5.60
2018-05-01T14:26:51.339Z,6.07
2018-05-01T14:29:20.296Z,5.30
2018-05-01T14:31:48.777Z,5.70
2018-05-01T14:34:16.924Z,4.77
2018-05-01T14:36:45.486Z,4.43
2018-05-01T14:39:14.343Z,4.77
2018-05-01T14:41:42.983Z,4.60
2018-05-01T14:44:11.811Z,5.00
2018-05-01T14:46:40.662Z,2.87
2018-05-01T14:49:09.813Z,6.37
2018-05-01T14:51:38.018Z,4.93
2018-05-01T14:54:06.865Z,7.80
2018-05-01T14:56:35.358Z,5.00
2018-05-01T14:59:03.916Z,3.80
2018-05-01T15:01:32.884Z,5.40
2018-05-01T15:04:01.375Z,4.90
2018-05-01T15:06:30.314Z,3.20
2018-05-01T15:08:58.722Z,4.23
2018-05-01T15:11:26.895Z,6.17
2018-05-01T15:13:56.323Z,5.97
2018-05-01T15:16:24.748Z,5.73
2018-05-01T15:18:53.166Z,5.87
2018-05-01T15:21:22.110Z,6.10
2018-05-01T15:23:51.895Z,4.23
2018-05-01T15:26:20.871Z,5.13
2018-05-01T15:28:49.764Z,6.77
2018-05-01T15:31:18.461Z,5.17
2018-05-01T15:33:47.348Z,3.93
2018-05-01T15:36:15.979Z,4.43
2018-05-01T15:38:44.505Z,4.40
2018-05-01T15:41:12.925Z,5.90
2018-05-01T15:43:41.859Z,6.30
2018-05-01T15:46:10.042Z,3.97
2018-05-01T15:48:38.221Z,5.67
2018-05-01T15:51:06.797Z,5.93
2018-05-01T15:53:35.348Z,6.33
2018-05-01T15:56:03.767Z,4.87
2018-05-01T15:58:31.930Z,5.10
2018-05-01T16:01:00.116Z,7.50
2018-05-01T16:03:29.060Z,3.93
2018-05-01T16:05:58.013Z,5.63
2018-05-01T16:08:26.224Z,3.87
2018-05-01T16:10:54.816Z,5.63
2018-05-01T16:13:23.199Z,5.27
2018-05-01T16:15:51.763Z,5.77
2018-05-01T16:18:21.437Z,7.40
2018-05-01T16:20:49.822Z,4.83
2018-05-01T16:23:17.999Z,3.60
2018-05-01T16:25:46.189Z,5.73
2018-05-01T16:28:14.704Z,4.33
2018-05-01T16:30:43.635Z,3.57
2018-05-01T16:33:11.810Z,5.87
2018-05-01T16:35:39.990Z,3.37
2018-05-01T16:38:08.563Z,4.73
2018-05-01T16:40:37.646Z,6.07
2018-05-01T16:43:06.275Z,4.90
2018-05-01T16:45:35.223Z,6.27
2018-05-01T16:48:04.154Z,4.63
2018-05-01T16:50:32.335Z,8.23
2018-05-01T16:53:01.005Z,5.03
2018-05-01T16:55:30.053Z,4.10
2018-05-01T16:57:58.474Z,5.83
2018-05-01T17:00:26.895Z,4.13
2018-05-01T17:02:55.034Z,5.10
2018-05-01T17:05:24.584Z,5.33
2018-05-01T17:07:53.202Z,4.17
2018-05-01T17:10:21.728Z,5.23
2018-05-01T17:12:50.443Z,5.83
2018-05-01T17:15:18.988Z,5.00
2018-05-01T17:17:47.132Z,5.20
2018-05-01T17:20:16.103Z,3.83
2018-05-01T17:22:44.675Z,4.10
2018-05-01T17:25:13.815Z,6.03
2018-05-01T17:27:42.817Z,7.53
2018-05-01T17:30:11.917Z,4.00
2018-05-01T17:32:40.756Z,3.83
2018-05-01T17:35:09.023Z,3.70
2018-05-01T17:37:37.206Z,5.90
2018-05-01T17:40:06.542Z,6.20
2018-05-01T17:42:35.134Z,4.77
2018-05-01T17:45:03.698Z,5.33
2018-05-01T17:47:32.627Z,5.13
2018-05-01T17:50:00.802Z,5.77
2018-05-01T17:52:29.834Z,4.90
2018-05-01T17:54:59.472Z,4.87
2018-05-01T17:57:28.145Z,4.30
2018-05-01T17:59:56.238Z,5.03
2018-05-01T18:02:25.455Z,5.13
2018-05-01T18:04:54.097Z,4.07
2018-05-01T18:07:22.487Z,4.30
2018-05-01T18:09:50.939Z,5.00
2018-05-01T18:12:19.156Z,4.47
2018-05-01T18:14:47.843Z,8.20
2018-05-01T18:17:16.092Z,3.50
2018-05-01T18:19:44.728Z,4.87
2018-05-01T18:22:13.149Z,4.83
2018-05-01T18:24:42.405Z,6.23
2018-05-01T18:27:10.827Z,6.80
2018-05-01T18:29:39.874Z,5.47
2018-05-01T18:32:08.887Z,4.53
2018-05-01T18:34:37.095Z,5.70
2018-05-01T18:37:06.170Z,6.30
2018-05-01T18:39:34.813Z,7.27
2018-05-01T18:42:03.016Z,5.53
2018-05-01T18:44:31.618Z,7.30
2018-05-01T18:47:00.484Z,8.07
2018-05-01T18:49:28.658Z,6.23
2018-05-01T18:51:58.171Z,5.47
2018-05-01T18:54:26.710Z,7.57
2018-05-01T18:56:56.056Z,7.33
2018-05-01T18:59:24.480Z,6.77
2018-05-01T19:01:52.622Z,7.47
2018-05-01T19:04:22.308Z,7.07
2018-05-01T19:06:52.239Z,6.77
2018-05-01T19:09:22.016Z,4.80
2018-05-01T19:11:51.112Z,4.83
2018-05-01T19:14:20.334Z,4.83
2018-05-01T19:16:48.860Z,6.63
2018-05-01T19:19:17.384Z,6.17
2018-05-01T19:21:46.851Z,9.93
2018-05-01T19:24:15.376Z,6.53
2018-05-01T19:26:43.968Z,9.20
2018-05-01T19:29:13.051Z,6.63
2018-05-01T19:31:42.103Z,8.10
2018-05-01T19:34:10.591Z,6.00
2018-05-01T19:36:39.055Z,4.37
2018-05-01T19:39:07.570Z,5.23
2018-05-01T19:41:36.204Z,4.87
2018-05-01T19:44:04.835Z,5.77
2018-05-01T19:46:32.974Z,5.10
2018-05-01T19:49:02.162Z,8.93
2018-05-01T19:51:30.686Z,6.30
2018-05-01T19:53:58.875Z,7.40
2018-05-01T19:56:27.870Z,7.50
2018-05-01T19:58:56.511Z,8.83
2018-05-01T20:01:24.690Z,6.53
2018-05-01T20:03:52.922Z,5.60
2018-05-01T20:06:21.446Z,6.97
2018-05-01T20:08:50.833Z,6.80
2018-05-01T20:11:18.970Z,6.43
2018-05-01T20:13:47.163Z,7.70
2018-05-01T20:16:15.772Z,6.47
2018-05-01T20:18:44.598Z,8.60
2018-05-01T20:21:13.241Z,5.80
2018-05-01T20:23:41.872Z,6.67
2018-05-01T20:26:10.451Z,7.53
2018-05-01T20:28:40.167Z,8.90
2018-05-01T20:31:08.702Z,6.67
2018-05-01T20:33:37.257Z,8.07
2018-05-01T20:36:05.962Z,5.63
2018-05-01T20:38:34.592Z,6.00
2018-05-01T20:41:02.731Z,8.40
2018-05-01T20:43:30.987Z,7.93
2018-05-01T20:45:59.560Z,9.13
2018-05-01T20:48:27.708Z,10.87
2018-05-01T20:50:56.791Z,5.97
2018-05-01T20:53:25.434Z,6.17
2018-05-01T20:55:53.575Z,6.27
2018-05-01T20:58:21.754Z,4.63
2018-05-01T21:00:49.930Z,6.10
2018-05-01T21:03:19.117Z,6.30
2018-05-01T21:05:47.499Z,6.57
2018-05-01T21:08:16.571Z,7.63
2018-05-01T21:10:45.075Z,5.00
2018-05-01T21:13:14.249Z,7.63
2018-05-01T21:15:43.228Z,6.37
2018-05-01T21:18:13.196Z,7.40
2018-05-01T21:20:41.616Z,6.27
2018-05-01T21:23:10.246Z,9.83
2018-05-01T21:25:38.667Z,8.47
2018-05-01T21:28:06.906Z,8.80
2018-05-01T21:30:37.285Z,5.20
2018-05-01T21:33:05.919Z,5.47
2018-05-01T21:35:34.974Z,6.63
2018-05-01T21:38:03.151Z,8.00
2018-05-01T21:40:31.703Z,11.07
2018-05-01T21:43:00.387Z,5.90
2018-05-01T21:45:30.841Z,5.17
2018-05-01T21:47:59.003Z,9.90
2018-05-01T21:50:28.207Z,6.70
2018-05-01T21:52:56.836Z,6.10
2018-05-01T21:55:25.426Z,7.97
2018-05-01T21:57:53.887Z,10.40
2018-05-01T22:00:23.211Z,7.43
2018-05-01T22:02:51.879Z,9.70
2018-05-01T22:05:20.703Z,7.13
2018-05-01T22:07:50.810Z,7.53
2018-05-01T22:10:19.858Z,9.27
2018-05-01T22:12:48.017Z,7.50
2018-05-01T22:15:16.597Z,8.27
2018-05-01T22:17:44.771Z,8.93
2018-05-01T22:20:13.777Z,11.53
2018-05-01T22:22:42.891Z,7.00
2018-05-01T22:25:11.088Z,7.03
2018-05-01T22:27:39.641Z,7.00
2018-05-01T22:30:08.468Z,8.47
2018-05-01T22:32:37.515Z,6.17
2018-05-01T22:35:05.693Z,9.23
2018-05-01T22:37:34.330Z,7.83
2018-05-01T22:40:02.899Z,6.23
2018-05-01T22:42:31.737Z,8.33
2018-05-01T22:45:00.690Z,9.10
2018-05-01T22:47:30.063Z,6.83
2018-05-01T22:49:59.003Z,7.43
2018-05-01T22:52:28.686Z,5.40
2018-05-01T22:54:57.979Z,9.40
2018-05-01T22:57:26.514Z,8.93
2018-05-01T22:59:55.663Z,7.70
2018-05-01T23:02:24.640Z,7.63
2018-05-01T23:04:53.784Z,9.03
2018-05-01T23:07:22.528Z,6.43
2018-05-01T23:09:51.563Z,7.50
2018-05-01T23:12:19.748Z,4.90
2018-05-01T23:14:48.610Z,7.67
2018-05-01T23:17:17.218Z,7.37
2018-05-01T23:19:45.744Z,8.40
2018-05-01T23:22:14.834Z,7.17
2018-05-01T23:24:43.356Z,8.47
2018-05-01T23:27:12.510Z,8.37
2018-05-01T23:29:40.650Z,8.63
2018-05-01T23:32:10.380Z,8.23
2018-05-01T23:34:39.756Z,7.50
2018-05-01T23:37:08.595Z,7.63
2018-05-01T23:39:36.735Z,6.40
2018-05-01T23:42:05.702Z,7.80
2018-05-01T23:44:34.754Z,8.57
2018-05-01T23:47:04.787Z,5.97
2018-05-01T23:49:34.775Z,8.33
2018-05-01T23:52:03.258Z,7.70
2018-05-01T23:54:32.253Z,8.40
2018-05-01T23:57:01.400Z,6.43
2018-05-01T23:59:29.566Z,6.23
